Details From CYPX - Puvirnituq
To CYTS - Timmins
Flight Number -
Tags Generated
Created
Modified
Stats Distance 704 nm / 1,304 km
Max Altitude 0 ft / 0 m
Waypoints 3
Social Downloads 1
Likes 0
Share VATSIM

Download

Looking for another format? Having issues loading an existing format? Contact us
Advertisement - Login to hide

Notes

Generated

Route

CYPX LORNE CYTS

ID Type Via Altitude Latitude Longitude Leg Dist Tot Dist Heading (true) Name
O CYPX APT - 0 ft / 0 m 60.04389˚ -77.28306˚ - 0 nm - -
LORNE FIX - 0 ft / 0 m 48.67333˚ -81.40500˚ 697 nm 697 nm 194° / 190° -
O CYTS APT - 0 ft / 0 m 48.56972˚ -81.38666˚ 6 nm 703 nm 173° / 173° -

Altitude Profile

Advertisement - Login to hide

Weather


0- 5 10 15 20 25 30 35+ Temperature / ° C

Clouds and Precipitation
Forecast for 2017-12-16 12:00 UTC. Updated 2 hours ago

Ground ~20,000 ft ~40,000 ft Winds

CYPX

Details ICAO CYPX (YPX)
Name PUVIRNITUQ
Region Canada
Timezone America/Montreal (UTC-5.0)
Stats Elevation 74 ft / 23 m (AMSL)
Location 60.050418° -77.286945°
Runways 1
Magnetic Variation 19.949° W

METAR

CYPX 160841Z AUTO 33014KT 6SM -SN CLR M10/M11 A2939 RMK SLP957

Decode

TAF

TAF AMD CYPX 160814Z 1608/1618 33015G25KT P6SM FEW015 BKN030 TEMPO 1608/1618 21/2SM -SN BLSN BKN015 RMK FCST BASED ON AUTO OBS. NXT FCST BY 161200Z

Decode

Departure Runways

ID Width Length Bearing (true) Bearing (mag) Surface Threshold Offset Overrun Length
01 100 ft / 30 m 4,971 ft / 1,515 m 343.44° 3.39° Gravel 0 ft / 0 m 0 ft / 0 m
19 100 ft / 30 m 4,971 ft / 1,515 m 163.44° 183.39° Gravel 0 ft / 0 m 0 ft / 0 m

CYTS

Details ICAO CYTS (YTS)
Name TIMMINS
Region Canada
Timezone America/Toronto (UTC-5.0)
Stats Elevation 967 ft / 295 m (AMSL)
Location 48.570140° -81.375487°
Runways 2
Magnetic Variation 10.495° W

METAR

CYTS 160800Z 30009KT 8SM -SN DRSN BKN025 BKN071 M23/M26 A2982 RMK SC5AC2 /S01/ SLP133

Decode

TAF

TAF CYTS 160739Z 1608/1620 32008KT P6SM SCT020 BKN070 TEMPO 1608/1620 5SM -SN BKN020 RMK NXT FCST BY 161400Z

Decode

Destination Runways

ID Width Length Bearing (true) Bearing (mag) Surface Threshold Offset Overrun Length
03 150 ft / 46 m 5,974 ft / 1,821 m 21.05° 31.54° Asphalt 0 ft / 0 m 0 ft / 0 m
10 150 ft / 46 m 4,897 ft / 1,493 m 91.19° 101.68° Asphalt 0 ft / 0 m 0 ft / 0 m
21 150 ft / 46 m 5,974 ft / 1,821 m 201.06° 211.55° Asphalt 0 ft / 0 m 0 ft / 0 m
28 150 ft / 46 m 4,897 ft / 1,493 m 271.20° 281.69° Asphalt 0 ft / 0 m 0 ft / 0 m

Approach Navaids

Runway Type Ident Frequency Range Bearing (true) Bearing (mag) Slope Elevation
03 Localiser ITS 109.70 MHz 18 nm / 33 km 21.13° 31.63° - 967 ft / 295 m (AMSL)
03 Glidescope ITS 109.70 MHz 10 nm / 19 km 21.06° 31.55° 3.00° 967 ft / 295 m (AMSL)